Time;durP1;ratioP1;P1;durP2;ratioP2;P2;SDS_P1;SDS_P2;PMS_P1;PMS_P2;Temp;Humidity;BMP_temperature;BMP_pressure;BME280_temperature;BME280_humidity;BME280_pressure;Samples;Min_cycle;Max_cycle;Signal;HPM_P1;HPM_P2
2023/09/01 00:00:21;;;;;;;2.70;1.23;;;;;;;;;;4947917;29;20043;-81
2023/09/01 00:03:00;;;;;;;3.63;1.17;;;;;;;;;;4941388;29;20116;-81
2023/09/01 00:05:25;;;;;;;2.22;1.10;;;;;;;;;;4947974;29;20118;-81
2023/09/01 00:07:50;;;;;;;2.75;1.00;;;;;;;;;;4947122;29;20036;-81
2023/09/01 00:10:15;;;;;;;2.70;1.13;;;;;;;;;;4944690;28;20114;-81
2023/09/01 00:12:41;;;;;;;2.13;1.20;;;;;;;;;;4948573;28;20059;-81
2023/09/01 00:15:06;;;;;;;2.28;1.30;;;;;;;;;;4950752;28;20040;-81
2023/09/01 00:17:31;;;;;;;2.88;1.25;;;;;;;;;;4946537;29;20035;-81
2023/09/01 00:19:56;;;;;;;3.25;1.17;;;;;;;;;;4950264;29;20373;-81
2023/09/01 00:22:21;;;;;;;2.95;1.15;;;;;;;;;;4950157;28;20394;-81
2023/09/01 00:24:47;;;;;;;5.10;1.35;;;;;;;;;;4950607;29;20034;-81
2023/09/01 00:27:12;;;;;;;3.17;1.40;;;;;;;;;;4950254;28;20027;-81
2023/09/01 00:29:37;;;;;;;2.70;1.58;;;;;;;;;;4986852;23;20070;-75
2023/09/01 00:32:03;;;;;;;2.72;1.05;;;;;;;;;;4985665;28;20078;-74
2023/09/01 00:34:29;;;;;;;2.92;1.38;;;;;;;;;;4980066;28;20693;-75
2023/09/01 00:36:55;;;;;;;2.88;1.30;;;;;;;;;;4985985;28;20105;-75
2023/09/01 00:39:20;;;;;;;2.58;1.13;;;;;;;;;;4983096;28;20118;-75
2023/09/01 00:41:45;;;;;;;3.38;1.20;;;;;;;;;;4983216;28;20045;-75
2023/09/01 00:44:13;;;;;;;4.40;1.73;;;;;;;;;;4984792;28;20065;-75
2023/09/01 00:46:39;;;;;;;3.13;1.55;;;;;;;;;;4982694;28;20034;-74
2023/09/01 00:49:04;;;;;;;2.50;1.58;;;;;;;;;;4980550;28;20037;-76
2023/09/01 00:51:30;;;;;;;3.55;1.70;;;;;;;;;;4985001;28;20114;-75
2023/09/01 00:53:55;;;;;;;3.88;1.77;;;;;;;;;;4983523;28;20089;-75
2023/09/01 00:56:21;;;;;;;3.45;1.48;;;;;;;;;;4985396;28;20036;-75
2023/09/01 00:58:46;;;;;;;3.20;1.27;;;;;;;;;;4981524;28;20038;-75
2023/09/01 01:01:11;;;;;;;3.13;1.52;;;;;;;;;;4985293;28;20053;-76
2023/09/01 01:03:37;;;;;;;2.80;1.52;;;;;;;;;;4979801;28;20420;-74
2023/09/01 01:06:11;;;;;;;4.30;1.80;;;;;;;;;;4986714;28;20037;-75
2023/09/01 01:08:56;;;;;;;2.25;1.13;;;;;;;;;;4983873;28;20494;-75
2023/09/01 01:11:21;;;;;;;2.50;1.52;;;;;;;;;;4974505;28;20582;-75
2023/09/01 01:13:51;;;;;;;2.88;1.60;;;;;;;;;;4986517;28;20113;-75
2023/09/01 01:16:17;;;;;;;3.80;2.03;;;;;;;;;;4982213;28;20073;-75
2023/09/01 01:18:43;;;;;;;3.10;1.65;;;;;;;;;;4984026;28;20069;-75
2023/09/01 01:21:15;;;;;;;2.47;1.40;;;;;;;;;;4983161;28;20031;-76
2023/09/01 01:23:42;;;;;;;4.18;1.50;;;;;;;;;;4983534;28;20030;-75
2023/09/01 01:26:08;;;;;;;3.60;1.83;;;;;;;;;;4984384;28;20509;-75
2023/09/01 01:28:33;;;;;;;2.92;1.65;;;;;;;;;;4983095;28;20045;-76
2023/09/01 01:30:58;;;;;;;2.95;1.45;;;;;;;;;;4984445;28;20769;-75
2023/09/01 01:33:29;;;;;;;4.70;2.15;;;;;;;;;;4981180;28;20501;-75
2023/09/01 01:36:00;;;;;;;4.00;1.88;;;;;;;;;;4985673;28;20390;-75
2023/09/01 01:38:27;;;;;;;5.05;1.70;;;;;;;;;;4979145;28;20134;-74
2023/09/01 01:40:55;;;;;;;2.97;1.83;;;;;;;;;;4985136;28;20045;-75
2023/09/01 01:43:26;;;;;;;2.88;1.40;;;;;;;;;;4982998;28;20089;-75
2023/09/01 01:45:52;;;;;;;4.03;1.60;;;;;;;;;;4984255;28;20026;-76
2023/09/01 01:48:17;;;;;;;5.25;1.67;;;;;;;;;;4982837;28;20037;-75
2023/09/01 01:50:42;;;;;;;4.07;1.70;;;;;;;;;;4985022;28;20026;-75
2023/09/01 01:53:08;;;;;;;3.67;1.88;;;;;;;;;;4980514;28;20038;-75
2023/09/01 01:55:34;;;;;;;3.95;1.92;;;;;;;;;;4981797;28;20074;-76
2023/09/01 01:58:00;;;;;;;3.72;2.28;;;;;;;;;;4989929;28;20031;-76
2023/09/01 02:00:27;;;;;;;3.78;1.95;;;;;;;;;;4982591;28;20027;-75
2023/09/01 02:02:53;;;;;;;2.92;1.70;;;;;;;;;;4981266;28;20085;-75
2023/09/01 02:05:19;;;;;;;3.03;1.80;;;;;;;;;;4981756;28;20035;-74
2023/09/01 02:07:44;;;;;;;2.50;1.40;;;;;;;;;;4985016;28;20113;-75
2023/09/01 02:10:09;;;;;;;3.75;2.03;;;;;;;;;;4979059;28;20050;-75
2023/09/01 02:12:34;;;;;;;5.22;2.92;;;;;;;;;;4982368;28;20034;-75
2023/09/01 02:15:00;;;;;;;4.97;2.85;;;;;;;;;;4983543;28;20030;-76
2023/09/01 02:17:25;;;;;;;4.65;2.08;;;;;;;;;;4982234;28;20062;-75
2023/09/01 02:19:50;;;;;;;3.13;2.13;;;;;;;;;;4980502;28;20081;-75
2023/09/01 02:22:16;;;;;;;2.78;1.45;;;;;;;;;;4983996;28;20030;-75
2023/09/01 02:24:41;;;;;;;2.85;1.67;;;;;;;;;;4981517;28;20033;-76
2023/09/01 02:27:06;;;;;;;3.42;1.85;;;;;;;;;;4984775;28;20402;-75
2023/09/01 02:29:31;;;;;;;4.97;1.70;;;;;;;;;;4980930;28;20125;-76
2023/09/01 02:31:57;;;;;;;3.78;2.33;;;;;;;;;;4984877;28;20030;-74
2023/09/01 02:34:22;;;;;;;5.00;2.53;;;;;;;;;;4975396;28;20038;-75
2023/09/01 02:36:47;;;;;;;2.72;1.50;;;;;;;;;;4983531;28;20034;-76
2023/09/01 02:39:13;;;;;;;3.78;1.50;;;;;;;;;;4979160;28;20701;-75
2023/09/01 02:41:38;;;;;;;4.30;2.00;;;;;;;;;;4977192;28;20034;-76
2023/09/01 02:44:04;;;;;;;5.10;1.98;;;;;;;;;;4984833;28;20038;-75
2023/09/01 02:46:29;;;;;;;4.40;2.00;;;;;;;;;;4981232;28;20041;-74
2023/09/01 02:48:54;;;;;;;3.92;2.35;;;;;;;;;;4983975;28;20030;-75
2023/09/01 02:51:20;;;;;;;4.53;1.90;;;;;;;;;;4979645;28;20081;-75
2023/09/01 02:53:46;;;;;;;3.88;1.60;;;;;;;;;;4984571;28;20065;-76
2023/09/01 02:56:12;;;;;;;2.58;1.40;;;;;;;;;;4980229;28;20498;-75
2023/09/01 02:58:37;;;;;;;2.63;1.35;;;;;;;;;;4983931;28;20157;-74
2023/09/01 03:01:07;;;;;;;3.97;2.05;;;;;;;;;;4979429;28;20049;-75
2023/09/01 03:03:34;;;;;;;5.95;2.20;;;;;;;;;;4979280;28;20098;-75
2023/09/01 03:05:59;;;;;;;6.07;2.28;;;;;;;;;;4982585;28;20650;-75
2023/09/01 03:08:24;;;;;;;4.20;2.00;;;;;;;;;;4981423;28;20030;-75
2023/09/01 03:10:49;;;;;;;5.32;2.42;;;;;;;;;;4973224;28;20027;-74
2023/09/01 03:13:16;;;;;;;4.15;2.00;;;;;;;;;;4982071;28;20046;-75
2023/09/01 03:15:41;;;;;;;3.58;1.92;;;;;;;;;;4982269;28;20034;-75
2023/09/01 03:18:08;;;;;;;5.60;2.13;;;;;;;;;;4980084;28;20031;-75
2023/09/01 03:20:34;;;;;;;5.70;2.47;;;;;;;;;;4980041;28;20034;-74
2023/09/01 03:22:59;;;;;;;4.90;2.67;;;;;;;;;;4980344;28;20041;-75
2023/09/01 03:25:25;;;;;;;3.60;1.80;;;;;;;;;;4979217;28;20030;-76
2023/09/01 03:27:51;;;;;;;9.23;1.95;;;;;;;;;;4983702;28;20037;-75
2023/09/01 03:30:16;;;;;;;4.88;1.88;;;;;;;;;;4980549;28;20506;-75
2023/09/01 03:32:44;;;;;;;2.83;1.52;;;;;;;;;;4981101;28;20034;-75
2023/09/01 03:35:09;;;;;;;4.03;2.10;;;;;;;;;;4977667;28;20042;-75
2023/09/01 03:37:35;;;;;;;6.50;2.38;;;;;;;;;;4974242;28;20030;-75
2023/09/01 03:40:00;;;;;;;4.65;2.00;;;;;;;;;;4980362;28;20489;-75
2023/09/01 03:42:25;;;;;;;6.45;2.00;;;;;;;;;;4980524;28;20105;-75
2023/09/01 03:44:51;;;;;;;4.78;2.28;;;;;;;;;;4981375;28;20030;-75
2023/09/01 03:47:17;;;;;;;3.72;1.77;;;;;;;;;;4983380;28;20398;-75
2023/09/01 03:49:42;;;;;;;4.22;2.38;;;;;;;;;;4977531;28;20126;-75
2023/09/01 03:52:07;;;;;;;7.68;2.83;;;;;;;;;;4983592;28;20106;-76
2023/09/01 03:54:33;;;;;;;6.03;2.50;;;;;;;;;;4980042;28;20505;-76
2023/09/01 03:56:58;;;;;;;7.22;2.80;;;;;;;;;;4981118;28;20146;-74
2023/09/01 03:59:23;;;;;;;6.57;3.10;;;;;;;;;;4979658;28;20132;-76
2023/09/01 04:01:49;;;;;;;6.38;2.70;;;;;;;;;;4980206;28;20042;-75
2023/09/01 04:04:14;;;;;;;5.60;2.35;;;;;;;;;;4978629;28;20033;-76
2023/09/01 04:06:39;;;;;;;6.53;2.88;;;;;;;;;;4983246;28;20034;-76
2023/09/01 04:09:05;;;;;;;6.82;2.70;;;;;;;;;;4975024;28;20078;-76
2023/09/01 04:11:30;;;;;;;5.55;2.78;;;;;;;;;;4980480;28;20062;-76
2023/09/01 04:13:56;;;;;;;5.38;2.58;;;;;;;;;;4977457;28;20023;-76
2023/09/01 04:16:21;;;;;;;7.43;2.75;;;;;;;;;;4979024;28;20489;-75
2023/09/01 04:18:47;;;;;;;5.40;2.90;;;;;;;;;;4973338;28;20027;-75
2023/09/01 04:21:13;;;;;;;6.93;2.88;;;;;;;;;;4979451;28;20049;-75
2023/09/01 04:23:39;;;;;;;6.55;3.63;;;;;;;;;;4977627;28;20033;-75
2023/09/01 04:26:05;;;;;;;12.35;8.90;;;;;;;;;;4973934;28;20034;-76
2023/09/01 04:28:31;;;;;;;8.13;4.25;;;;;;;;;;4960548;28;20034;-75
2023/09/01 04:30:59;;;;;;;7.85;3.80;;;;;;;;;;4977105;28;20490;-75
2023/09/01 04:33:29;;;;;;;8.40;3.38;;;;;;;;;;4969299;28;20033;-75
2023/09/01 04:36:03;;;;;;;7.85;2.72;;;;;;;;;;4974758;28;20037;-75
2023/09/01 04:38:29;;;;;;;5.70;2.60;;;;;;;;;;4974343;28;20037;-75
2023/09/01 04:40:59;;;;;;;7.45;2.88;;;;;;;;;;4976745;28;20030;-76
2023/09/01 04:43:25;;;;;;;5.75;2.75;;;;;;;;;;4975577;28;20041;-75
2023/09/01 04:45:51;;;;;;;7.57;3.95;;;;;;;;;;4972686;28;20513;-76
2023/09/01 04:48:16;;;;;;;6.60;2.90;;;;;;;;;;4976306;28;20022;-76
2023/09/01 04:50:42;;;;;;;8.35;3.47;;;;;;;;;;4976141;28;20035;-75
2023/09/01 04:53:07;;;;;;;6.82;3.47;;;;;;;;;;4975928;28;20034;-75
2023/09/01 04:55:32;;;;;;;7.90;3.97;;;;;;;;;;4977597;28;20030;-76
2023/09/01 04:57:57;;;;;;;6.72;3.58;;;;;;;;;;4978464;28;20107;-74
2023/09/01 05:00:23;;;;;;;6.55;3.38;;;;;;;;;;4982523;28;20496;-75
2023/09/01 05:02:48;;;;;;;10.65;5.30;;;;;;;;;;4981337;28;20113;-75
2023/09/01 05:05:14;;;;;;;11.38;6.72;;;;;;;;;;4975991;28;20031;-75
2023/09/01 05:07:40;;;;;;;6.00;3.30;;;;;;;;;;4981713;28;20485;-76
2023/09/01 05:10:06;;;;;;;6.72;3.50;;;;;;;;;;4982829;28;20524;-76
2023/09/01 05:12:32;;;;;;;6.13;3.30;;;;;;;;;;4981118;28;20046;-75
2023/09/01 05:14:57;;;;;;;7.60;2.88;;;;;;;;;;4983387;28;20023;-76
2023/09/01 05:17:22;;;;;;;7.22;3.88;;;;;;;;;;4982529;28;20053;-76
2023/09/01 05:19:48;;;;;;;5.82;2.58;;;;;;;;;;4983511;28;20412;-76
2023/09/01 05:22:13;;;;;;;6.43;3.05;;;;;;;;;;4983552;28;20771;-76
2023/09/01 05:24:40;;;;;;;5.78;2.55;;;;;;;;;;4983872;28;20038;-75
2023/09/01 05:27:06;;;;;;;5.82;3.17;;;;;;;;;;4985178;28;20695;-75
2023/09/01 05:29:31;;;;;;;6.10;2.80;;;;;;;;;;4982755;28;20042;-76
2023/09/01 05:31:56;;;;;;;10.57;3.65;;;;;;;;;;4985204;28;20030;-75
2023/09/01 05:34:21;;;;;;;8.43;2.90;;;;;;;;;;4979920;28;20031;-76
2023/09/01 05:36:47;;;;;;;5.93;3.47;;;;;;;;;;4983923;28;20498;-75
2023/09/01 05:39:12;;;;;;;7.95;3.50;;;;;;;;;;4982214;28;20035;-75
2023/09/01 05:41:38;;;;;;;8.10;3.10;;;;;;;;;;4975499;28;20032;-76
2023/09/01 05:44:03;;;;;;;5.22;3.15;;;;;;;;;;4978956;28;20406;-75
2023/09/01 05:46:30;;;;;;;5.63;2.80;;;;;;;;;;4980136;28;20023;-75
2023/09/01 05:48:55;;;;;;;6.15;3.38;;;;;;;;;;4980309;28;20023;-76
2023/09/01 05:51:20;;;;;;;8.35;3.28;;;;;;;;;;4975002;28;20042;-74
2023/09/01 05:53:45;;;;;;;7.18;3.10;;;;;;;;;;4977502;28;20030;-75
2023/09/01 05:56:11;;;;;;;6.35;2.83;;;;;;;;;;4985522;28;20153;-76
2023/09/01 05:58:36;;;;;;;6.80;3.38;;;;;;;;;;4981988;28;20027;-76
2023/09/01 06:01:01;;;;;;;5.95;3.20;;;;;;;;;;4981557;28;20420;-76
2023/09/01 06:03:27;;;;;;;6.10;3.25;;;;;;;;;;4971602;28;20040;-75
2023/09/01 06:05:52;;;;;;;7.82;3.05;;;;;;;;;;4985451;28;20081;-75
2023/09/01 06:08:18;;;;;;;10.35;3.47;;;;;;;;;;4981619;28;20102;-76
2023/09/01 06:10:44;;;;;;;5.70;3.22;;;;;;;;;;4982495;28;20058;-76
2023/09/01 06:13:09;;;;;;;8.43;3.60;;;;;;;;;;4981833;28;20461;-76
2023/09/01 06:15:34;;;;;;;6.80;3.40;;;;;;;;;;4977734;28;20041;-76
2023/09/01 06:17:59;;;;;;;8.45;3.60;;;;;;;;;;4983321;28;20042;-76
2023/09/01 06:20:25;;;;;;;6.43;2.72;;;;;;;;;;4981029;28;20027;-76
2023/09/01 06:22:53;;;;;;;8.70;3.38;;;;;;;;;;4981048;28;20039;-76
2023/09/01 06:25:19;;;;;;;9.95;3.70;;;;;;;;;;4979399;28;20121;-76
2023/09/01 06:27:44;;;;;;;7.18;3.50;;;;;;;;;;4982077;28;20174;-76
2023/09/01 06:30:09;;;;;;;9.98;3.45;;;;;;;;;;5033926;23;20055;-82
2023/09/01 06:32:34;;;;;;;9.50;3.20;;;;;;;;;;4987876;28;20037;-83
2023/09/01 06:35:00;;;;;;;10.10;3.45;;;;;;;;;;4984865;28;20033;-83
2023/09/01 06:37:25;;;;;;;6.53;3.05;;;;;;;;;;4984054;28;20108;-83
2023/09/01 06:39:51;;;;;;;6.95;3.15;;;;;;;;;;4998171;28;20035;-83
2023/09/01 06:42:16;;;;;;;7.75;3.45;;;;;;;;;;4985082;28;20166;-82
2023/09/01 06:44:41;;;;;;;9.38;3.22;;;;;;;;;;4985498;28;20030;-83
2023/09/01 06:47:06;;;;;;;7.85;3.35;;;;;;;;;;4984405;28;20039;-83
2023/09/01 06:49:32;;;;;;;5.90;3.05;;;;;;;;;;4974752;28;20077;-83
2023/09/01 06:51:58;;;;;;;6.35;3.25;;;;;;;;;;4981345;28;20035;-83
2023/09/01 06:54:24;;;;;;;6.28;2.78;;;;;;;;;;4981787;28;20503;-82
2023/09/01 06:56:49;;;;;;;8.85;2.72;;;;;;;;;;4986067;28;20062;-82
2023/09/01 06:59:17;;;;;;;6.55;3.40;;;;;;;;;;5027252;23;20031;-82
2023/09/01 07:01:46;;;;;;;;;;;;;;;;;;5001475;28;20420;-82
2023/09/01 07:04:49;;;;;;;7.85;3.10;;;;;;;;;;4988988;28;19918;-82
2023/09/01 07:07:14;;;;;;;6.25;2.72;;;;;;;;;;4960570;28;20405;-81
2023/09/01 07:09:39;;;;;;;7.25;2.80;;;;;;;;;;4983879;28;20049;-82
2023/09/01 07:12:05;;;;;;;6.80;2.47;;;;;;;;;;4983376;28;20031;-82
2023/09/01 07:14:30;;;;;;;6.13;2.60;;;;;;;;;;4986166;28;20034;-82
2023/09/01 07:16:55;;;;;;;10.13;2.95;;;;;;;;;;4978692;28;20030;-82
2023/09/01 07:19:20;;;;;;;7.00;2.65;;;;;;;;;;4973695;28;20035;-81
2023/09/01 07:21:46;;;;;;;8.00;2.90;;;;;;;;;;4981853;28;20030;-82
2023/09/01 07:24:11;;;;;;;8.02;2.97;;;;;;;;;;4985071;28;20042;-81
2023/09/01 07:26:37;;;;;;;7.25;2.55;;;;;;;;;;4989874;28;20163;-81
2023/09/01 07:29:02;;;;;;;8.25;2.92;;;;;;;;;;4982981;28;20041;-81
2023/09/01 07:31:27;;;;;;;5.32;2.55;;;;;;;;;;4982954;28;20910;-82
2023/09/01 07:33:54;;;;;;;9.02;2.45;;;;;;;;;;4980662;28;20038;-82
2023/09/01 07:36:21;;;;;;;5.55;2.75;;;;;;;;;;4985779;28;20512;-82
2023/09/01 07:38:46;;;;;;;5.50;2.45;;;;;;;;;;4983498;28;20026;-83
2023/09/01 07:41:11;;;;;;;6.50;2.60;;;;;;;;;;4985786;28;20482;-83
2023/09/01 07:43:37;;;;;;;7.18;2.70;;;;;;;;;;4974271;28;20466;-82
2023/09/01 07:46:03;;;;;;;7.47;2.50;;;;;;;;;;4983977;28;20454;-82
2023/09/01 07:48:28;;;;;;;6.38;2.33;;;;;;;;;;4984828;28;20034;-83
2023/09/01 07:50:54;;;;;;;9.90;2.85;;;;;;;;;;4984722;28;20035;-82
2023/09/01 07:53:19;;;;;;;6.10;2.50;;;;;;;;;;4985077;28;20026;-82
2023/09/01 07:55:44;;;;;;;6.10;2.58;;;;;;;;;;4983134;28;20036;-82
2023/09/01 07:58:09;;;;;;;8.35;2.90;;;;;;;;;;4982731;28;20034;-81
2023/09/01 08:00:37;;;;;;;5.03;2.83;;;;;;;;;;4982015;28;20106;-82
2023/09/01 08:03:03;;;;;;;6.05;2.45;;;;;;;;;;4982956;28;20046;-82
2023/09/01 08:05:28;;;;;;;9.13;2.78;;;;;;;;;;4973969;28;20019;-82
2023/09/01 08:07:53;;;;;;;6.25;2.47;;;;;;;;;;4981556;28;20040;-82
2023/09/01 08:10:18;;;;;;;8.52;2.90;;;;;;;;;;4979861;28;20035;-82
2023/09/01 08:12:44;;;;;;;7.97;2.15;;;;;;;;;;4982528;28;20086;-82
2023/09/01 08:15:10;;;;;;;9.23;2.63;;;;;;;;;;4983482;28;20125;-82
2023/09/01 08:17:35;;;;;;;7.75;3.10;;;;;;;;;;4981576;28;20037;-82
2023/09/01 08:20:02;;;;;;;10.23;3.50;;;;;;;;;;4985495;28;20112;-82
2023/09/01 08:22:27;;;;;;;8.60;3.00;;;;;;;;;;4981790;28;20051;-82
2023/09/01 08:24:52;;;;;;;8.45;2.90;;;;;;;;;;4985414;28;20065;-82
2023/09/01 08:27:17;;;;;;;8.55;3.25;;;;;;;;;;4984376;28;20080;-83
2023/09/01 08:29:42;;;;;;;7.30;2.85;;;;;;;;;;4981852;28;20023;-83
2023/09/01 08:32:09;;;;;;;7.38;2.95;;;;;;;;;;4986561;28;20030;-83
2023/09/01 08:34:34;;;;;;;6.40;3.83;;;;;;;;;;4978432;28;20110;-83
2023/09/01 08:36:59;;;;;;;8.32;3.30;;;;;;;;;;4990229;28;20046;-82
2023/09/01 08:39:25;;;;;;;7.60;2.40;;;;;;;;;;4985054;28;20516;-82
2023/09/01 08:41:52;;;;;;;9.00;3.20;;;;;;;;;;4987204;28;20027;-82
2023/09/01 08:44:20;;;;;;;6.13;2.42;;;;;;;;;;4971708;28;20045;-83
2023/09/01 08:46:46;;;;;;;6.47;2.15;;;;;;;;;;4986254;28;20496;-83
2023/09/01 08:49:11;;;;;;;8.05;2.60;;;;;;;;;;4986682;28;20031;-82
2023/09/01 08:51:39;;;;;;;8.80;3.25;;;;;;;;;;4987385;28;20031;-82
2023/09/01 08:54:05;;;;;;;7.88;2.75;;;;;;;;;;4981294;28;20402;-83
2023/09/01 08:56:32;;;;;;;7.32;2.83;;;;;;;;;;4981980;28;20065;-83
2023/09/01 08:58:58;;;;;;;7.53;2.22;;;;;;;;;;4984230;28;20158;-83
2023/09/01 09:01:23;;;;;;;9.73;3.22;;;;;;;;;;4986470;28;20054;-83
2023/09/01 09:03:48;;;;;;;10.80;2.60;;;;;;;;;;4985446;28;20039;-82
2023/09/01 09:06:13;;;;;;;7.00;2.80;;;;;;;;;;4985836;28;20045;-83
2023/09/01 09:08:39;;;;;;;6.25;2.40;;;;;;;;;;4985340;28;20031;-83
2023/09/01 09:11:10;;;;;;;7.10;2.85;;;;;;;;;;4984842;28;20023;-83
2023/09/01 09:13:36;;;;;;;7.80;2.22;;;;;;;;;;4982047;28;20164;-84
2023/09/01 09:16:10;;;;;;;8.98;2.90;;;;;;;;;;4990865;28;20158;-84
2023/09/01 09:18:36;;;;;;;6.30;1.90;;;;;;;;;;4983630;28;20049;-84
2023/09/01 09:21:02;;;;;;;7.75;2.30;;;;;;;;;;4976776;28;20042;-85
2023/09/01 09:23:43;;;;;;;7.43;2.45;;;;;;;;;;4983401;28;20391;-84
2023/09/01 09:26:09;;;;;;;6.70;2.53;;;;;;;;;;4986853;28;20055;-84
2023/09/01 09:28:34;;;;;;;7.55;2.45;;;;;;;;;;4991082;28;20110;-85
2023/09/01 09:31:00;;;;;;;5.18;1.90;;;;;;;;;;4988178;28;20026;-85
2023/09/01 09:33:29;;;;;;;7.28;2.65;;;;;;;;;;4987838;28;20395;-85
2023/09/01 09:35:55;;;;;;;9.13;2.45;;;;;;;;;;4979973;28;20035;-84
2023/09/01 09:38:21;;;;;;;6.50;2.58;;;;;;;;;;4989270;28;20040;-84
2023/09/01 09:40:56;;;;;;;7.55;2.25;;;;;;;;;;4984759;28;20493;-85
2023/09/01 09:43:22;;;;;;;7.05;2.75;;;;;;;;;;4989363;28;20444;-83
2023/09/01 09:45:47;;;;;;;8.63;3.60;;;;;;;;;;4988003;28;20034;-84
2023/09/01 09:48:13;;;;;;;6.68;2.20;;;;;;;;;;4989833;28;20080;-84
2023/09/01 09:50:39;;;;;;;7.05;2.33;;;;;;;;;;4988185;28;20038;-84
2023/09/01 09:53:05;;;;;;;7.30;2.30;;;;;;;;;;4988155;28;20092;-84
2023/09/01 09:55:30;;;;;;;6.65;2.50;;;;;;;;;;4990507;28;20034;-84
2023/09/01 09:58:06;;;;;;;8.18;2.42;;;;;;;;;;4993572;28;20492;-85
2023/09/01 10:00:35;;;;;;;9.23;2.58;;;;;;;;;;4985358;28;20719;-84
2023/09/01 10:03:06;;;;;;;5.65;2.00;;;;;;;;;;4992054;28;20023;-84
2023/09/01 10:05:34;;;;;;;7.50;2.47;;;;;;;;;;4986321;28;20030;-84
2023/09/01 10:08:02;;;;;;;9.63;3.38;;;;;;;;;;4988116;28;20504;-84
2023/09/01 10:10:27;;;;;;;6.68;2.45;;;;;;;;;;4971683;28;20082;-84
2023/09/01 10:12:52;;;;;;;8.07;2.42;;;;;;;;;;4979466;28;20078;-83
2023/09/01 10:15:19;;;;;;;6.00;2.03;;;;;;;;;;4987317;28;20042;-83
2023/09/01 10:17:46;;;;;;;4.72;2.05;;;;;;;;;;4985962;28;20046;-83
2023/09/01 10:20:12;;;;;;;6.82;2.20;;;;;;;;;;4985240;28;20046;-83
2023/09/01 10:22:40;;;;;;;4.22;1.98;;;;;;;;;;4986529;28;20169;-83
2023/09/01 10:25:08;;;;;;;6.10;2.33;;;;;;;;;;4985429;28;20035;-83
2023/09/01 10:27:52;;;;;;;5.40;2.70;;;;;;;;;;4981576;28;20054;-81
2023/09/01 10:30:22;;;;;;;7.28;2.47;;;;;;;;;;4988685;28;20166;-83
2023/09/01 10:32:47;;;;;;;5.60;2.42;;;;;;;;;;4971844;28;20505;-83
2023/09/01 10:35:13;;;;;;;4.97;1.77;;;;;;;;;;4976590;28;20027;-83
2023/09/01 10:37:38;;;;;;;7.65;2.00;;;;;;;;;;4983539;28;20274;-83
2023/09/01 10:40:23;;;;;;;8.30;2.03;;;;;;;;;;4985451;28;20018;-83
2023/09/01 10:42:50;;;;;;;5.88;2.03;;;;;;;;;;4981243;28;20051;-83
2023/09/01 10:45:15;;;;;;;4.28;2.08;;;;;;;;;;4991421;28;20097;-83
2023/09/01 10:47:40;;;;;;;6.53;2.58;;;;;;;;;;4990315;28;20505;-83
2023/09/01 10:50:06;;;;;;;6.93;2.30;;;;;;;;;;4987873;28;20081;-83
2023/09/01 10:52:31;;;;;;;5.13;2.00;;;;;;;;;;4981501;28;20034;-84
2023/09/01 10:55:00;;;;;;;6.57;2.38;;;;;;;;;;4985448;28;20397;-84
2023/09/01 10:57:38;;;;;;;9.68;2.78;;;;;;;;;;4990653;28;20031;-84
2023/09/01 11:00:37;;;;;;;5.70;1.98;;;;;;;;;;4987420;28;20034;-84
2023/09/01 11:03:22;;;;;;;3.67;1.80;;;;;;;;;;4973711;28;20119;-84
2023/09/01 11:05:53;;;;;;;5.53;1.98;;;;;;;;;;4972028;28;20405;-85
2023/09/01 11:08:19;;;;;;;6.13;1.90;;;;;;;;;;4989026;28;20056;-84
2023/09/01 11:10:44;;;;;;;6.68;1.88;;;;;;;;;;4989723;28;20027;-84
2023/09/01 11:13:17;;;;;;;4.82;1.48;;;;;;;;;;4989572;28;20026;-84
2023/09/01 11:15:43;;;;;;;5.68;1.83;;;;;;;;;;4979744;28;20102;-84
2023/09/01 11:18:14;;;;;;;7.35;2.17;;;;;;;;;;4985011;28;20049;-84
2023/09/01 11:20:39;;;;;;;;;;;;;;;;;;4989862;28;20035;-84
2023/09/01 11:23:05;;;;;;;4.93;2.00;;;;;;;;;;4998284;28;19918;-84
2023/09/01 11:25:32;;;;;;;6.03;1.80;;;;;;;;;;4987465;28;20425;-84
2023/09/01 11:27:57;;;;;;;4.55;1.58;;;;;;;;;;4990350;28;20054;-84
2023/09/01 11:30:23;;;;;;;5.28;1.67;;;;;;;;;;4990020;28;20031;-84
2023/09/01 11:33:12;;;;;;;5.55;2.00;;;;;;;;;;4988658;28;20058;-85
2023/09/01 11:35:46;;;;;;;4.53;1.80;;;;;;;;;;4969747;28;20049;-85
2023/09/01 11:38:19;;;;;;;5.90;2.00;;;;;;;;;;4989916;28;20405;-84
2023/09/01 11:40:45;;;;;;;4.65;1.95;;;;;;;;;;4994702;28;20049;-84
2023/09/01 11:43:10;;;;;;;4.72;1.75;;;;;;;;;;4989711;28;20035;-84
2023/09/01 11:45:43;;;;;;;3.85;1.63;;;;;;;;;;4988121;28;20067;-84
2023/09/01 11:48:09;;;;;;;3.63;1.70;;;;;;;;;;4991209;28;20045;-84
2023/09/01 11:50:34;;;;;;;4.18;1.67;;;;;;;;;;4986974;28;20031;-83
2023/09/01 11:52:59;;;;;;;4.07;1.77;;;;;;;;;;4990312;28;20045;-84
2023/09/01 11:55:28;;;;;;;4.50;1.58;;;;;;;;;;4966800;28;20289;-84
2023/09/01 11:57:53;;;;;;;6.85;2.90;;;;;;;;;;4989458;28;20034;-84
2023/09/01 12:00:28;;;;;;;4.82;1.85;;;;;;;;;;4990208;28;20044;-84
2023/09/01 12:02:53;;;;;;;4.88;1.70;;;;;;;;;;4989354;28;20038;-85
2023/09/01 12:05:26;;;;;;;5.63;1.83;;;;;;;;;;4982437;28;20094;-84
2023/09/01 12:07:52;;;;;;;3.00;1.40;;;;;;;;;;4991167;28;20273;-83
2023/09/01 12:10:24;;;;;;;2.97;1.30;;;;;;;;;;4989237;28;20055;-83
2023/09/01 12:12:49;;;;;;;4.25;1.80;;;;;;;;;;4989655;28;20088;-84
2023/09/01 12:15:14;;;;;;;4.43;1.60;;;;;;;;;;4990185;28;20046;-84
2023/09/01 12:17:40;;;;;;;5.30;1.98;;;;;;;;;;4988454;28;20042;-83
2023/09/01 12:20:06;;;;;;;5.23;1.60;;;;;;;;;;4992841;28;20113;-84
2023/09/01 12:22:31;;;;;;;3.47;1.23;;;;;;;;;;4989835;28;20270;-84
2023/09/01 12:24:57;;;;;;;3.90;1.53;;;;;;;;;;4993862;28;20026;-84
2023/09/01 12:27:22;;;;;;;2.63;1.20;;;;;;;;;;4986647;28;20281;-83
2023/09/01 12:29:47;;;;;;;3.05;1.30;;;;;;;;;;4990466;28;20035;-84
2023/09/01 12:32:13;;;;;;;3.65;1.20;;;;;;;;;;4988687;28;20066;-84
2023/09/01 12:34:38;;;;;;;3.38;1.42;;;;;;;;;;4987679;28;20042;-83
2023/09/01 12:37:04;;;;;;;3.00;1.27;;;;;;;;;;4999841;23;20049;-77
2023/09/01 12:39:29;;;;;;;4.15;1.40;;;;;;;;;;4985218;28;20339;-77
2023/09/01 12:41:55;;;;;;;3.53;1.80;;;;;;;;;;4985930;28;20019;-77
2023/09/01 12:44:20;;;;;;;3.00;1.50;;;;;;;;;;4984571;28;20433;-77
2023/09/01 12:46:47;;;;;;;3.93;1.50;;;;;;;;;;4982517;28;20332;-77
2023/09/01 12:49:12;;;;;;;2.65;1.50;;;;;;;;;;4984765;28;20339;-77
2023/09/01 12:51:37;;;;;;;4.57;1.30;;;;;;;;;;4980126;28;20647;-76
2023/09/01 12:54:03;;;;;;;4.05;1.58;;;;;;;;;;4981527;28;20031;-77
2023/09/01 12:56:28;;;;;;;6.53;2.10;;;;;;;;;;4983446;28;20115;-77
2023/09/01 12:58:54;;;;;;;3.30;1.60;;;;;;;;;;4984190;28;20035;-76
2023/09/01 13:01:19;;;;;;;3.55;1.45;;;;;;;;;;4984537;28;20286;-77
2023/09/01 13:03:44;;;;;;;4.15;1.73;;;;;;;;;;4981938;28;20042;-77
2023/09/01 13:06:10;;;;;;;4.97;1.80;;;;;;;;;;4985306;28;20486;-77
2023/09/01 13:08:35;;;;;;;5.68;1.88;;;;;;;;;;4984398;28;20343;-77
2023/09/01 13:11:05;;;;;;;5.38;1.65;;;;;;;;;;4984358;28;20027;-77
2023/09/01 13:13:30;;;;;;;3.03;1.08;;;;;;;;;;4983594;28;20133;-77
2023/09/01 13:15:55;;;;;;;3.40;1.02;;;;;;;;;;4985596;28;20069;-77
2023/09/01 13:18:21;;;;;;;3.65;1.13;;;;;;;;;;4973943;28;20038;-77
2023/09/01 13:20:47;;;;;;;5.03;1.35;;;;;;;;;;4979296;28;20030;-77
2023/09/01 13:23:12;;;;;;;3.17;1.40;;;;;;;;;;4976517;28;20031;-77
2023/09/01 13:25:37;;;;;;;3.00;1.27;;;;;;;;;;4982032;28;20131;-76
2023/09/01 13:28:03;;;;;;;2.20;1.00;;;;;;;;;;4981690;28;20493;-76
2023/09/01 13:30:28;;;;;;;2.25;0.98;;;;;;;;;;4979994;28;20508;-77
2023/09/01 13:32:53;;;;;;;3.47;1.45;;;;;;;;;;4974096;28;20063;-77
2023/09/01 13:35:19;;;;;;;3.53;1.27;;;;;;;;;;4980758;28;20037;-78
2023/09/01 13:37:44;;;;;;;2.70;1.10;;;;;;;;;;4976877;28;20049;-77
2023/09/01 13:40:09;;;;;;;2.13;1.00;;;;;;;;;;4980279;28;20364;-77
2023/09/01 13:42:35;;;;;;;2.42;1.00;;;;;;;;;;4982059;28;20034;-77
2023/09/01 13:45:00;;;;;;;2.83;0.90;;;;;;;;;;4986044;28;20096;-77
2023/09/01 13:47:25;;;;;;;3.70;1.05;;;;;;;;;;4982175;28;20030;-76
2023/09/01 13:49:54;;;;;;;2.13;0.80;;;;;;;;;;4976320;28;20019;-76
2023/09/01 13:52:20;;;;;;;1.92;0.80;;;;;;;;;;4983734;28;20605;-77
2023/09/01 13:54:45;;;;;;;1.50;0.70;;;;;;;;;;4982720;28;20121;-77
2023/09/01 13:57:10;;;;;;;3.13;0.90;;;;;;;;;;4985010;28;20042;-76
2023/09/01 13:59:36;;;;;;;1.67;0.77;;;;;;;;;;4982295;28;20035;-76
2023/09/01 14:02:02;;;;;;;1.38;0.80;;;;;;;;;;4985294;28;20493;-77
2023/09/01 14:04:27;;;;;;;1.70;0.90;;;;;;;;;;4983118;28;20090;-77
2023/09/01 14:06:53;;;;;;;3.00;0.80;;;;;;;;;;4982914;28;20278;-76
2023/09/01 14:09:18;;;;;;;1.50;0.77;;;;;;;;;;4983535;28;20284;-77
2023/09/01 14:11:44;;;;;;;1.73;0.93;;;;;;;;;;4981612;28;20493;-77
2023/09/01 14:14:09;;;;;;;2.50;0.73;;;;;;;;;;4982998;28;20654;-77
2023/09/01 14:16:34;;;;;;;1.33;0.60;;;;;;;;;;4982777;28;20121;-76
2023/09/01 14:19:00;;;;;;;1.23;0.70;;;;;;;;;;4982684;28;21116;-77
2023/09/01 14:21:25;;;;;;;1.23;0.60;;;;;;;;;;4983576;28;20616;-76
2023/09/01 14:23:50;;;;;;;1.85;0.57;;;;;;;;;;4981539;28;20043;-76
2023/09/01 14:26:15;;;;;;;1.58;0.68;;;;;;;;;;4983333;28;20023;-76
2023/09/01 14:28:41;;;;;;;1.15;0.57;;;;;;;;;;4983366;28;20393;-76
2023/09/01 14:31:06;;;;;;;2.00;0.50;;;;;;;;;;4982299;28;20023;-77
2023/09/01 14:33:31;;;;;;;2.38;0.63;;;;;;;;;;4977343;28;20673;-76
2023/09/01 14:35:56;;;;;;;1.70;0.53;;;;;;;;;;4984168;28;20038;-76
2023/09/01 14:38:22;;;;;;;1.50;0.40;;;;;;;;;;4982594;28;20344;-76